Map

Track Data

SID SEASON NUMBER BASIN SUBBASIN NAME ISO_TIME NATURE LAT LON WMO_WIND WMO_PRES WMO_AGENCY TRACK_TYPE DIST2LAND LANDFALL IFLAG USA_AGENCY USA_ATCF_ID USA_LAT USA_LON USA_RECORD USA_STATUS USA_WIND USA_PRES USA_SSHS USA_R34_NE USA_R34_SE USA_R34_SW USA_R34_NW USA_R50_NE USA_R50_SE USA_R50_SW USA_R50_NW USA_R64_NE USA_R64_SE USA_R64_SW USA_R64_NW USA_POCI USA_ROCI USA_RMW USA_EYE TOKYO_LAT TOKYO_LON TOKYO_GRADE TOKYO_WIND TOKYO_PRES TOKYO_R50_DIR TOKYO_R50_LONG TOKYO_R50_SHORT TOKYO_R30_DIR TOKYO_R30_LONG TOKYO_R30_SHORT TOKYO_LAND CMA_LAT CMA_LON CMA_CAT CMA_WIND CMA_PRES HKO_LAT HKO_LON HKO_CAT HKO_WIND HKO_PRES NEWDELHI_LAT NEWDELHI_LON NEWDELHI_GRADE NEWDELHI_WIND NEWDELHI_PRES NEWDELHI_CI NEWDELHI_DP NEWDELHI_POCI REUNION_LAT REUNION_LON REUNION_TYPE REUNION_WIND REUNION_PRES REUNION_TNUM REUNION_CI REUNION_RMW REUNION_R34_NE REUNION_R34_SE REUNION_R34_SW REUNION_R34_NW REUNION_R50_NE REUNION_R50_SE REUNION_R50_SW REUNION_R50_NW REUNION_R64_NE REUNION_R64_SE REUNION_R64_SW REUNION_R64_NW BOM_LAT BOM_LON BOM_TYPE BOM_WIND BOM_PRES BOM_TNUM BOM_CI BOM_RMW BOM_R34_NE BOM_R34_SE BOM_R34_SW BOM_R34_NW BOM_R50_NE BOM_R50_SE BOM_R50_SW BOM_R50_NW BOM_R64_NE BOM_R64_SE BOM_R64_SW BOM_R64_NW BOM_ROCI BOM_POCI BOM_EYE BOM_POS_METHOD BOM_PRES_METHOD NADI_LAT NADI_LON NADI_CAT NADI_WIND NADI_PRES WELLINGTON_LAT WELLINGTON_LON WELLINGTON_WIND WELLINGTON_PRES DS824_LAT DS824_LON DS824_STAGE DS824_WIND DS824_PRES TD9636_LAT TD9636_LON TD9636_STAGE TD9636_WIND TD9636_PRES TD9635_LAT TD9635_LON TD9635_WIND TD9635_PRES TD9635_ROCI NEUMANN_LAT NEUMANN_LON NEUMANN_CLASS NEUMANN_WIND NEUMANN_PRES MLC_LAT MLC_LON MLC_CLASS MLC_WIND MLC_PRES USA_GUST BOM_GUST BOM_GUST_PER REUNION_GUST REUNION_GUST_PER USA_SEAHGT USA_SEARAD_NE USA_SEARAD_SE USA_SEARAD_SW USA_SEARAD_NW STORM_SPEED STORM_DIR
2000315S08083 2001 106 SI MM NOT_NAMED 2000-11-10 06:00:00 TS -7.60000 83.1000 main 1538 1538 O___________O_ jtwc_sh SH022001 -7.60000 83.1000 TD 25 -1 -7.60000 83.1000 TC 25 11 199
2000315S08083 2001 106 SI MM NOT_NAMED 2000-11-10 09:00:00 TS -8.12251 82.9126 main 1589 1589 P___________P_ SH022001 -8.12251 82.9126 TD 25 -1 -8.12251 82.9126 TC 25 11 202
2000315S08083 2001 106 SI MM NOT_NAMED 2000-11-10 12:00:00 TS -8.60000 82.7000 main 1641 1641 O___________O_ jtwc_sh SH022001 -8.60000 82.7000 TD 25 -1 -8.60000 82.7000 TC 25 10 208
2000315S08083 2001 106 SI MM NOT_NAMED 2000-11-10 15:00:00 TS -8.99500 82.4500 main 1682 1681 P___________P_ SH022001 -8.99500 82.4500 TD 27 -1 -8.99500 82.4500 TC 27 9 215
2000315S08083 2001 106 SI MM NOT_NAMED 2000-11-10 18:00:00 TS -9.30000 82.2000 main 1712 1712 O___________O_ jtwc_sh SH022001 -9.30000 82.2000 TD 30 -1 -9.30000 82.2000 TC 30 7 221
2000315S08083 2001 106 SI MM NOT_NAMED 2000-11-10 21:00:00 TS -9.51497 81.9924 main 1732 1732 P___________P_ SH022001 -9.51497 81.9924 TD 27 -1 -9.51497 81.9924 TC 27 6 225
2000315S08083 2001 106 SI MM NOT_NAMED 2000-11-11 00:00:00 TS -9.70000 81.8000 main 1753 1753 O___________O_ jtwc_sh SH022001 -9.70000 81.8000 TD 25 -1 -9.70000 81.8000 TC 25 6 221
2000315S08083 2001 106 SI MM NOT_NAMED 2000-11-11 03:00:00 TS -9.94244 81.6224 main 1773 1773 P___________P_ SH022001 -9.94244 81.6224 TD 25 -1 -9.94244 81.6224 TC 25 6 218
2000315S08083 2001 106 SI MM NOT_NAMED 2000-11-11 06:00:00 TS -10.2000 81.4000 main 1806 1806 O___________O_ jtwc_sh SH022001 -10.2000 81.4000 TD 25 -1 -10.2000 81.4000 TC 25 8 226
2000315S08083 2001 106 SI MM NOT_NAMED 2000-11-11 09:00:00 TS -10.4650 81.0725 main 1838 1838 P___________P_ SH022001 -10.4650 81.0725 TD 27 -1 -10.4650 81.0725 TC 27 9 234
2000315S08083 2001 106 SI MM NOT_NAMED 2000-11-11 12:00:00 TS -10.7000 80.7000 main 1860 1860 O___________O_ jtwc_sh SH022001 -10.7000 80.7000 TD 30 -1 -10.7000 80.7000 TC 30 8 240
2000315S08083 2001 106 SI MM NOT_NAMED 2000-11-11 15:00:00 TS -10.8875 80.3275 main 1882 1882 P___________P_ SH022001 -10.8875 80.3275 TD 30 -1 -10.8875 80.3275 TC 30 8 246
2000315S08083 2001 106 SI MM NOT_NAMED 2000-11-11 18:00:00 TS -11.0000 80.0000 main 1894 1894 O___________O_ jtwc_sh SH022001 -11.0000 80.0000 TD 30 -1 -11.0000 80.0000 TC 30 6 255
2000315S08083 2001 106 SI MM NOT_NAMED 2000-11-11 21:00:00 TS -11.0375 79.7625 main 1895 1895 P___________P_ SH022001 -11.0375 79.7625 TD 30 -1 -11.0375 79.7625 TC 30 4 270
2000315S08083 2001 106 SI MM NOT_NAMED 2000-11-12 00:00:00 TS -11.0000 79.6000 main 1896 1886 O___________O_ jtwc_sh SH022001 -11.0000 79.6000 TD 30 -1 -11.0000 79.6000 TC 30 3 292
2000315S08083 2001 106 SI MM NOT_NAMED 2000-11-12 03:00:00 TS -10.9225 79.4700 main 1886 1875 P___________P_ SH022001 -10.9225 79.4700 TD 30 -1 -10.9225 79.4700 TC 30 3 315
2000315S08083 2001 106 SI MM NOT_NAMED 2000-11-12 06:00:00 TS -10.8000 79.4000 main 1875 1864 O___________O_ jtwc_sh SH022001 -10.8000 79.4000 TD 30 -1 -10.8000 79.4000 TC 30 3 340
2000315S08083 2001 106 SI MM NOT_NAMED 2000-11-12 09:00:00 TS -10.6575 79.3700 main 1864 1842 P___________P_ SH022001 -10.6575 79.3700 TD 32 -1 -10.6575 79.3700 TC 32 3 0
2000315S08083 2001 106 SI MM NOT_NAMED 2000-11-12 12:00:00 TS -10.5000 79.4000 main 1842 1830 O___________O_ jtwc_sh SH022001 -10.5000 79.4000 TS 35 0 -10.5000 79.4000 TC 35 3 18
2000315S08083 2001 106 SI MM NOT_NAMED 2000-11-12 15:00:00 TS -10.3500 79.4775 main 1819 1807 P___________P_ SH022001 -10.3500 79.4775 TS 35 0 -10.3500 79.4775 TC 35 4 33
2000315S08083 2001 106 SI MM NOT_NAMED 2000-11-12 18:00:00 TS -10.2000 79.6000 main 1807 1795 O___________O_ jtwc_sh SH022001 -10.2000 79.6000 TS 35 0 -10.2000 79.6000 TC 35 4 40
2000315S08083 2001 106 SI MM NOT_NAMED 2000-11-12 21:00:00 TS -10.0425 79.7425 main 1784 1772 P___________P_ SH022001 -10.0425 79.7425 TS 32 -1 -10.0425 79.7425 TC 32 4 44
2000315S08083 2001 106 SI MM NOT_NAMED 2000-11-13 00:00:00 TS -9.90000 79.9000 main 1772 1760 O___________O_ jtwc_sh SH022001 -9.90000 79.9000 TD 30 -1 -9.90000 79.9000 TC 30 4 50
2000315S08083 2001 106 SI MM NOT_NAMED 2000-11-13 03:00:00 TS -9.78499 80.0500 main 1760 1748 P___________P_ SH022001 -9.78499 80.0500 TD 30 -1 -9.78499 80.0500 TC 30 4 56
2000315S08083 2001 106 SI MM NOT_NAMED 2000-11-13 06:00:00 TS -9.70000 80.2000 main 1748 1737 O___________O_ jtwc_sh SH022001 -9.70000 80.2000 TD 30 -1 -9.70000 80.2000 TC 30 3 62
2000315S08083 2001 106 SI MM NOT_NAMED 2000-11-13 09:00:00 TS -9.63498 80.3425 main 1737 1736 P___________P_ SH022001 -9.63498 80.3425 TD 30 -1 -9.63498 80.3425 TC 30 3 71
2000315S08083 2001 106 SI MM NOT_NAMED 2000-11-13 12:00:00 TS -9.60000 80.5000 main 1736 1736 O___________O_ jtwc_sh SH022001 -9.60000 80.5000 TD 30 -1 -9.60000 80.5000 TC 30 3 82
2000315S08083 2001 106 SI MM NOT_NAMED 2000-11-13 15:00:00 TS -9.58500 80.6925 main 1736 1736 P___________P_ SH022001 -9.58500 80.6925 TD 30 -1 -9.58500 80.6925 TC 30 4 90
2000315S08083 2001 106 SI MM NOT_NAMED 2000-11-13 18:00:00 TS -9.60000 80.9000 main 1737 1737 O___________O_ jtwc_sh SH022001 -9.60000 80.9000 TD 30 -1 -9.60000 80.9000 TC 30 4 99
2000315S08083 2001 106 SI MM NOT_NAMED 2000-11-13 21:00:00 TS -9.65000 81.1075 main 1737 1737 P___________P_ SH022001 -9.65000 81.1075 TD 30 -1 -9.65000 81.1075 TC 30 4 104
2000315S08083 2001 106 SI MM NOT_NAMED 2000-11-14 00:00:00 TS -9.70000 81.3000 main 1749 1749 O___________O_ jtwc_sh SH022001 -9.70000 81.3000 TD 30 -1 -9.70000 81.3000 TC 30 4 99
2000315S08083 2001 106 SI MM NOT_NAMED 2000-11-14 03:00:00 TS -9.70748 81.4575 main 1750 1750 P___________P_ SH022001 -9.70748 81.4575 TD 30 -1 -9.70748 81.4575 TC 30 3 90
2000315S08083 2001 106 SI MM NOT_NAMED 2000-11-14 06:00:00 TS -9.70000 81.6000 main 1751 1751 O___________O_ jtwc_sh SH022001 -9.70000 81.6000 TD 30 -1 -9.70000 81.6000 TC 30 3 89
2000315S08083 2001 106 SI MM NOT_NAMED 2000-11-14 09:00:00 TS -9.69999 81.7500 main 1753 1752 P___________P_ SH022001 -9.69999 81.7500 TD 30 -1 -9.69999 81.7500 TC 30 3 90
2000315S08083 2001 106 SI MM NOT_NAMED 2000-11-14 12:00:00 TS -9.70000 81.9000 main 1753 1753 O___________O_ jtwc_sh SH022001 -9.70000 81.9000 TD 30 -1 -9.70000 81.9000 TC 30 3 92
2000315S08083 2001 106 SI MM NOT_NAMED 2000-11-14 15:00:00 TS -9.70745 82.0275 main 1754 1754 P___________P_ SH022001 -9.70745 82.0275 TD 30 -1 -9.70745 82.0275 TC 30 3 90
2000315S08083 2001 106 SI MM NOT_NAMED 2000-11-14 18:00:00 TS -9.70000 82.2000 main 1756 1756 O___________O_ jtwc_sh SH022001 -9.70000 82.2000 TD 30 -1 -9.70000 82.2000 TC 30 5 85
2000315S08083 2001 106 SI MM NOT_NAMED 2000-11-14 21:00:00 TS -9.66504 82.4850 main 1760 1750 P___________P_ SH022001 -9.66504 82.4850 TD 30 -1 -9.66504 82.4850 TC 30 6 80
2000315S08083 2001 106 SI MM NOT_NAMED 2000-11-15 00:00:00 TS -9.60000 82.8000 main 1753 1744 O___________O_ jtwc_sh SH022001 -9.60000 82.8000 TD 30 -1 -9.60000 82.8000 TC 30 6 73
2000315S08083 2001 106 SI MM NOT_NAMED 2000-11-15 03:00:00 TS -9.49248 83.0650 main 1747 1738 P___________P_ SH022001 -9.49248 83.0650 TD 30 -1 -9.49248 83.0650 TC 30 5 68
2000315S08083 2001 106 SI MM NOT_NAMED 2000-11-15 06:00:00 TS -9.40000 83.3000 main 1740 1740 O___________O_ jtwc_sh SH022001 -9.40000 83.3000 TD 30 -1 -9.40000 83.3000 TC 30 5 73
2000315S08083 2001 106 SI MM NOT_NAMED 2000-11-15 09:00:00 TS -9.35499 83.5225 main 1744 1744 P___________P_ SH022001 -9.35499 83.5225 TD 30 -1 -9.35499 83.5225 TC 30 4 90
2000315S08083 2001 106 SI MM NOT_NAMED 2000-11-15 12:00:00 TS -9.40000 83.7000 main 1748 1748 O___________O_ jtwc_sh SH022001 -9.40000 83.7000 TD 30 -1 -9.40000 83.7000 TC 30 3 128
2000315S08083 2001 106 SI MM NOT_NAMED 2000-11-15 15:00:00 TS -9.56996 83.8000 main 1772 1772 P___________P_ SH022001 -9.56996 83.8000 TD 30 -1 -9.56996 83.8000 TC 30 4 154
2000315S08083 2001 106 SI MM NOT_NAMED 2000-11-15 18:00:00 TS -9.80000 83.9000 main 1796 1796 O___________O_ jtwc_sh SH022001 -9.80000 83.9000 TD 30 -1 -9.80000 83.9000 TC 30 5 149
2000315S08083 2001 106 SI MM NOT_NAMED 2000-11-15 21:00:00 TS -10.0075 84.0700 main 1823 1823 P___________P_ SH022001 -10.0075 84.0700 TD 30 -1 -10.0075 84.0700 TC 30 6 135
2000315S08083 2001 106 SI MM NOT_NAMED 2000-11-16 00:00:00 TS -10.2000 84.3000 main 1850 1850 O___________O_ jtwc_sh SH022001 -10.2000 84.3000 TD 30 -1 -10.2000 84.3000 TC 30 6 124
2000315S08083 2001 106 SI MM NOT_NAMED 2000-11-16 03:00:00 TS -10.3500 84.5851 main 1857 1835 P___________P_ SH022001 -10.3500 84.5851 TD 27 -1 -10.3500 84.5851 TC 27 7 117
2000315S08083 2001 106 SI MM NOT_NAMED 2000-11-16 06:00:00 TS -10.5000 84.9000 main 1835 1819 O___________O_ jtwc_sh SH022001 -10.5000 84.9000 TD 25 -1 -10.5000 84.9000 TC 25 7 120
2000315S08083 2001 106 SI MM NOT_NAMED 2000-11-16 09:00:00 TS -10.7075 85.2150 main 1819 1804 P___________P_ SH022001 -10.7075 85.2150 TD 25 -1 -10.7075 85.2150 TC 25 7 124
2000315S08083 2001 106 SI MM NOT_NAMED 2000-11-16 12:00:00 TS -10.9000 85.5000 main 1804 1792 O___________O_ jtwc_sh SH022001 -10.9000 85.5000 TD 25 -1 -10.9000 85.5000 TC 25 6 123
2000315S08083 2001 106 SI MM NOT_NAMED 2000-11-16 15:00:00 TS -11.0300 85.7150 main 1792 1780 P___________P_ SH022001 -11.0300 85.7150 TD 25 -1 -11.0300 85.7150 TC 25 4 117
2000315S08083 2001 106 SI MM NOT_NAMED 2000-11-16 18:00:00 TS -11.1000 85.9000 main 1780 1763 O___________O_ jtwc_sh SH022001 -11.1000 85.9000 TD 25 -1 -11.1000 85.9000 TC 25 4 105
2000315S08083 2001 106 SI MM NOT_NAMED 2000-11-16 21:00:00 TS -11.1300 86.1000 main 1763 1745 P___________P_ SH022001 -11.1300 86.1000 TD 25 -1 -11.1300 86.1000 TC 25 4 90
2000315S08083 2001 106 SI MM NOT_NAMED 2000-11-17 00:00:00 TS -11.1000 86.3000 main 1745 1721 O___________O_ jtwc_sh SH022001 -11.1000 86.3000 TD 25 -1 -11.1000 86.3000 TC 25 4 73
2000315S08083 2001 106 SI MM NOT_NAMED 2000-11-17 03:00:00 TS -11.0150 86.4925 main 1721 1697 P___________P_ SH022001 -11.0150 86.4925 TD 27 -1 -11.0150 86.4925 TC 27 4 63
2000315S08083 2001 106 SI MM NOT_NAMED 2000-11-17 06:00:00 TS -10.9000 86.7000 main 1697 1672 O___________O_ jtwc_sh SH022001 -10.9000 86.7000 TD 30 -1 -10.9000 86.7000 TC 30 5 62
2000315S08083 2001 106 SI MM NOT_NAMED 2000-11-17 09:00:00 TS -10.7775 86.9500 main 1664 1639 P___________P_ SH022001 -10.7775 86.9500 TD 30 -1 -10.7775 86.9500 TC 30 5 68
2000315S08083 2001 106 SI MM NOT_NAMED 2000-11-17 12:00:00 TS -10.7000 87.2000 main 1639 1622 O___________O_ jtwc_sh SH022001 -10.7000 87.2000 TD 30 -1 -10.7000 87.2000 TC 30 5 81
2000315S08083 2001 106 SI MM NOT_NAMED 2000-11-17 15:00:00 TS -10.6975 87.4449 main 1622 1605 P___________P_ SH022001 -10.6975 87.4449 TD 30 -1 -10.6975 87.4449 TC 30 4 104
2000315S08083 2001 106 SI MM NOT_NAMED 2000-11-17 18:00:00 TS -10.8000 87.6000 main 1612 1612 O___________O_ jtwc_sh SH022001 -10.8000 87.6000 TD 30 -1 -10.8000 87.6000 TC 30 4 153
2000315S08083 2001 106 SI MM NOT_NAMED 2000-11-17 21:00:00 TS -11.0274 87.6175 main 1626 1626 P___________P_ SH022001 -11.0274 87.6175 TD 30 -1 -11.0274 87.6175 TC 30 5 191
2000315S08083 2001 106 SI MM NOT_NAMED 2000-11-18 00:00:00 TS -11.3000 87.5000 main 1655 1655 O___________O_ jtwc_sh SH022001 -11.3000 87.5000 TD 30 -1 -11.3000 87.5000 TC 30 6 214
2000315S08083 2001 106 SI MM NOT_NAMED 2000-11-18 03:00:00 TS -11.5150 87.2875 main 1687 1687 P___________P_ SH022001 -11.5150 87.2875 TD 30 -1 -11.5150 87.2875 TC 30 6 231
2000315S08083 2001 106 SI MM NOT_NAMED 2000-11-18 06:00:00 TS -11.7000 87.0000 main 1726 1726 O___________O_ jtwc_sh SH022001 -11.7000 87.0000 TD 30 -1 -11.7000 87.0000 TC 30 6 240
2000315S08083 2001 106 SI MM NOT_NAMED 2000-11-18 09:00:00 TS -11.8349 86.7298 main 1758 1758 P___________P_ SH022001 -11.8349 86.7298 TD 30 -1 -11.8349 86.7298 TC 30 7 243
2000315S08083 2001 106 SI MM NOT_NAMED 2000-11-18 12:00:00 TS -12.0000 86.4000 main 1798 1798 O___________O_ jtwc_sh SH022001 -12.0000 86.4000 TD 30 -1 -12.0000 86.4000 TC 30 8 239
2000315S08083 2001 106 SI MM NOT_NAMED 2000-11-18 15:00:00 TS -12.2699 85.9949 main 1853 1853 P___________P_ SH022001 -12.2699 85.9949 TD 30 -1 -12.2699 85.9949 TC 30 11 236
2000315S08083 2001 106 SI MM NOT_NAMED 2000-11-18 18:00:00 TS -12.6000 85.5000 main 1916 1916 O___________O_ jtwc_sh SH022001 -12.6000 85.5000 TD 30 -1 -12.6000 85.5000 TC 30 12 237
2000315S08083 2001 106 SI MM NOT_NAMED 2000-11-18 21:00:00 TS -12.9425 84.9225 main 1988 1988 P___________P_ SH022001 -12.9425 84.9225 TD 30 -1 -12.9425 84.9225 TC 30 14 239
2000315S08083 2001 106 SI MM NOT_NAMED 2000-11-19 00:00:00 TS -13.3000 84.3000 main 2067 2067 O___________O_ jtwc_sh SH022001 -13.3000 84.3000 TD 30 -1 -13.3000 84.3000 TC 30 14 238
2000315S08083 2001 106 SI MM NOT_NAMED 2000-11-19 03:00:00 TS -13.6724 83.7000 main 2146 2146 P___________P_ SH022001 -13.6724 83.7000 TD 30 -1 -13.6724 83.7000 TC 30 14 239
2000315S08083 2001 106 SI MM NOT_NAMED 2000-11-19 06:00:00 TS -14.0000 83.1000 main 2218 2218 O___________O_ jtwc_sh SH022001 -14.0000 83.1000 TD 30 -1 -14.0000 83.1000 TC 30 13 244
2000315S08083 2001 106 SI MM NOT_NAMED 2000-11-19 09:00:00 TS -14.2222 82.5147 main 2261 2260 P___________P_ SH022001 -14.2222 82.5147 TD 27 -1 -14.2222 82.5147 TC 27 12 251
2000315S08083 2001 106 SI MM NOT_NAMED 2000-11-19 12:00:00 TS -14.4000 81.9000 main 2278 2278 O___________O_ jtwc_sh SH022001 -14.4000 81.9000 TD 25 -1 -14.4000 81.9000 TC 25 13 254
2000315S08083 2001 106 SI MM NOT_NAMED 2000-11-19 15:00:00 TS -14.5877 81.2067 main 2297 2297 P___________P_ SH022001 -14.5850 81.1998 TD 25 -1 -14.5930 81.2204 TC 25 14 254
2000315S08083 2001 106 SI MM NOT_NAMED 2000-11-19 18:00:00 TS -14.8000 80.5000 main 2319 2319 O___________O_ jtwc_sh SH022001 -14.8000 80.5000 TD 25 -1 -14.8000 80.5000 TC 25 14 250
2000315S08083 2001 106 SI MM NOT_NAMED 2000-11-19 21:00:00 TS -15.0473 79.8771 main 2342 2338 P_____________ SH022001 -15.0473 79.8771 TD 25 -1 TC 13 243
2000315S08083 2001 106 SI MM NOT_NAMED 2000-11-20 00:00:00 TS -15.4000 79.3000 main 2338 2271 O_____________ jtwc_sh SH022001 -15.4000 79.3000 TD 25 -1 14 232
2000315S08083 2001 106 SI MM NOT_NAMED 2000-11-20 03:00:00 TS -15.9053 78.7458 main 2261 2192 P_____________ SH022001 -15.9053 78.7458 TD 25 -1 15 224
2000315S08083 2001 106 SI MM NOT_NAMED 2000-11-20 06:00:00 TS -16.5000 78.2000 main 2192 O_____________ jtwc_sh SH022001 -16.5000 78.2000 TD 25 -1 16 221

About IBTrACS Database

This database is a web-friendly format of International Best Track Archive for Climate Stewardship (IBTrACS), a global best track data archive curated by NOAA dating back to 1842.

Updated: 2021-12-03